createdAt,value
2022-12-03T00:00:24.602Z,1024.60
2022-12-03T00:01:27.421Z,1024.58
2022-12-03T00:02:30.618Z,1024.56
2022-12-03T00:04:07.300Z,1024.55
2022-12-03T00:05:10.257Z,1024.51
2022-12-03T00:06:12.935Z,1024.49
2022-12-03T00:07:52.902Z,1024.49
2022-12-03T00:08:56.189Z,1024.52
2022-12-03T00:09:59.091Z,1024.47
2022-12-03T00:11:33.610Z,1024.49
2022-12-03T00:12:36.595Z,1024.48
2022-12-03T00:13:39.428Z,1024.47
2022-12-03T00:15:14.380Z,1024.46
2022-12-03T00:16:17.642Z,1024.41
2022-12-03T00:17:20.968Z,1024.42
2022-12-03T00:18:55.531Z,1024.46
2022-12-03T00:19:58.499Z,1024.44
2022-12-03T00:21:01.295Z,1024.45
2022-12-03T00:22:36.062Z,1024.41
2022-12-03T00:23:45.834Z,1024.41
2022-12-03T00:24:48.678Z,1024.36
2022-12-03T00:26:23.696Z,1024.37
2022-12-03T00:27:26.423Z,1024.35
2022-12-03T00:28:29.363Z,1024.34
2022-12-03T00:30:03.819Z,1024.34
2022-12-03T00:31:06.872Z,1024.36
2022-12-03T00:32:09.956Z,1024.33
2022-12-03T00:33:44.557Z,1024.36
2022-12-03T00:34:47.264Z,1024.35
2022-12-03T00:35:50.497Z,1024.35
2022-12-03T00:37:25.206Z,1024.33
2022-12-03T00:38:27.912Z,1024.32
2022-12-03T00:39:30.931Z,1024.32
2022-12-03T00:41:05.494Z,1024.28
2022-12-03T00:42:08.380Z,1024.34
2022-12-03T00:43:11.079Z,1024.33
2022-12-03T00:44:45.775Z,1024.32
2022-12-03T00:45:49.252Z,1024.37
2022-12-03T00:46:52.734Z,1024.29
2022-12-03T00:48:28.172Z,1024.31
2022-12-03T00:49:30.935Z,1024.32
2022-12-03T00:50:33.635Z,1024.34
2022-12-03T00:52:08.275Z,1024.34
2022-12-03T00:53:11.124Z,1024.30
2022-12-03T00:54:13.838Z,1024.26
2022-12-03T00:55:55.427Z,1024.31
2022-12-03T00:56:58.190Z,1024.29
2022-12-03T00:58:00.934Z,1024.31
2022-12-03T00:59:35.554Z,1024.31
2022-12-03T01:00:23.458Z,1024.28
2022-12-03T01:01:26.444Z,1024.29
2022-12-03T01:02:30.289Z,1024.27
2022-12-03T01:04:04.836Z,1024.26
2022-12-03T01:05:08.935Z,1024.32
2022-12-03T01:06:11.915Z,1024.26
2022-12-03T01:07:46.652Z,1024.27
2022-12-03T01:08:49.834Z,1024.24
2022-12-03T01:09:52.702Z,1024.27
2022-12-03T01:11:27.322Z,1024.28
2022-12-03T01:12:30.007Z,1024.23
2022-12-03T01:13:32.895Z,1024.25
2022-12-03T01:15:07.641Z,1024.24
2022-12-03T01:16:10.676Z,1024.22
2022-12-03T01:17:13.996Z,1024.20
2022-12-03T01:18:48.545Z,1024.19
2022-12-03T01:19:59.165Z,1024.21
2022-12-03T01:21:01.917Z,1024.21
2022-12-03T01:22:36.406Z,1024.24
2022-12-03T01:23:39.198Z,1024.20
2022-12-03T01:24:42.020Z,1024.18
2022-12-03T01:26:17.025Z,1024.15
2022-12-03T01:27:19.769Z,1024.13
2022-12-03T01:28:22.642Z,1024.16
2022-12-03T01:29:57.304Z,1024.12
2022-12-03T01:31:00.257Z,1024.10
2022-12-03T01:32:03.412Z,1024.12
2022-12-03T01:33:37.802Z,1024.12
2022-12-03T01:34:40.694Z,1024.12
2022-12-03T01:35:43.886Z,1024.12
2022-12-03T01:37:18.431Z,1024.11
2022-12-03T01:38:21.165Z,1024.09
2022-12-03T01:39:23.836Z,1024.08
2022-12-03T01:40:58.339Z,1024.05
2022-12-03T01:42:08.549Z,1024.13
2022-12-03T01:43:11.298Z,1024.04
2022-12-03T01:44:45.798Z,1024.05
2022-12-03T01:45:49.169Z,1024.01
2022-12-03T01:46:52.466Z,1023.97
2022-12-03T01:48:27.581Z,1024.03
2022-12-03T01:49:30.515Z,1023.96
2022-12-03T01:50:33.304Z,1023.96
2022-12-03T01:52:07.942Z,1024.01
2022-12-03T01:53:10.713Z,1023.99
2022-12-03T01:54:13.534Z,1023.94
2022-12-03T01:55:54.303Z,1023.95
2022-12-03T01:56:57.209Z,1023.96
2022-12-03T01:57:59.932Z,1023.96
2022-12-03T01:59:34.660Z,1023.98
2022-12-03T02:00:22.979Z,1023.92
2022-12-03T02:01:25.864Z,1023.98
2022-12-03T02:02:29.017Z,1023.95
2022-12-03T02:04:03.765Z,1023.95
2022-12-03T02:05:07.520Z,1023.97
2022-12-03T02:06:10.356Z,1023.96
2022-12-03T02:07:45.279Z,1023.96
2022-12-03T02:08:48.367Z,1023.96
2022-12-03T02:09:51.041Z,1023.99
2022-12-03T02:11:25.696Z,1023.91
2022-12-03T02:12:28.368Z,1023.92
2022-12-03T02:13:31.051Z,1023.93
2022-12-03T02:15:06.274Z,1023.91
2022-12-03T02:16:09.426Z,1023.94
2022-12-03T02:17:12.613Z,1023.92
2022-12-03T02:18:47.146Z,1023.90
2022-12-03T02:19:50.121Z,1023.92
2022-12-03T02:20:52.775Z,1023.92
2022-12-03T02:22:27.272Z,1023.87
2022-12-03T02:23:30.138Z,1023.94
2022-12-03T02:24:33.196Z,1023.93
2022-12-03T02:26:08.160Z,1023.93
2022-12-03T02:27:10.850Z,1024.00
2022-12-03T02:28:13.668Z,1023.97
2022-12-03T02:29:48.570Z,1023.97
2022-12-03T02:30:51.405Z,1023.95
2022-12-03T02:31:54.879Z,1023.96
2022-12-03T02:33:29.533Z,1023.98
2022-12-03T02:34:32.346Z,1023.93
2022-12-03T02:35:34.929Z,1023.96
2022-12-03T02:37:09.446Z,1023.98
2022-12-03T02:38:12.058Z,1024.01
2022-12-03T02:39:14.787Z,1023.99
2022-12-03T02:40:49.329Z,1023.97
2022-12-03T02:41:52.027Z,1024.02
2022-12-03T02:42:54.805Z,1023.95
2022-12-03T02:44:29.341Z,1023.94
2022-12-03T02:45:32.041Z,1023.91
2022-12-03T02:46:34.996Z,1023.89
2022-12-03T02:48:09.935Z,1023.89
2022-12-03T02:49:12.620Z,1023.90
2022-12-03T02:50:15.350Z,1023.94
2022-12-03T02:51:49.861Z,1023.97
2022-12-03T02:52:52.575Z,1023.94
2022-12-03T02:53:55.467Z,1023.91
2022-12-03T02:55:36.359Z,1023.89
2022-12-03T02:56:39.784Z,1023.94
2022-12-03T02:57:42.611Z,1023.95
2022-12-03T02:59:17.117Z,1023.95
2022-12-03T03:00:23.537Z,1023.94
2022-12-03T03:01:26.728Z,1023.91
2022-12-03T03:02:30.539Z,1023.95
2022-12-03T03:04:05.327Z,1023.92
2022-12-03T03:05:08.001Z,1023.90
2022-12-03T03:06:10.864Z,1023.89
2022-12-03T03:07:45.627Z,1023.86
2022-12-03T03:08:49.121Z,1023.85
2022-12-03T03:09:51.840Z,1023.86
2022-12-03T03:11:26.400Z,1023.88
2022-12-03T03:12:29.101Z,1023.87
2022-12-03T03:13:36.629Z,1023.84
2022-12-03T03:15:11.090Z,1023.82
2022-12-03T03:16:14.017Z,1023.84
2022-12-03T03:17:17.165Z,1023.79
2022-12-03T03:18:51.701Z,1023.79
2022-12-03T03:19:54.737Z,1023.83
2022-12-03T03:20:57.487Z,1023.82
2022-12-03T03:22:32.012Z,1023.82
2022-12-03T03:23:34.757Z,1023.83
2022-12-03T03:24:37.473Z,1023.81
2022-12-03T03:26:12.804Z,1023.86
2022-12-03T03:27:15.563Z,1023.78
2022-12-03T03:28:18.295Z,1023.77
2022-12-03T03:29:52.803Z,1023.78
2022-12-03T03:30:55.613Z,1023.76
2022-12-03T03:31:58.837Z,1023.74
2022-12-03T03:33:33.613Z,1023.77
2022-12-03T03:34:36.424Z,1023.75
2022-12-03T03:35:39.621Z,1023.75
2022-12-03T03:37:14.248Z,1023.72
2022-12-03T03:38:17.024Z,1023.72
2022-12-03T03:39:19.908Z,1023.71
2022-12-03T03:40:54.662Z,1023.70
2022-12-03T03:41:57.293Z,1023.77
2022-12-03T03:43:00.046Z,1023.72
2022-12-03T03:44:34.493Z,1023.69
2022-12-03T03:45:41.027Z,1023.63
2022-12-03T03:46:44.272Z,1023.70
2022-12-03T03:48:18.833Z,1023.69
2022-12-03T03:49:21.689Z,1023.66
2022-12-03T03:50:24.344Z,1023.65
2022-12-03T03:51:58.948Z,1023.67
2022-12-03T03:53:01.689Z,1023.71
2022-12-03T03:54:04.474Z,1023.67
2022-12-03T03:55:39.458Z,1023.70
2022-12-03T03:56:42.280Z,1023.65
2022-12-03T03:57:44.940Z,1023.60
2022-12-03T03:59:19.507Z,1023.62
2022-12-03T04:00:23.274Z,1023.61
2022-12-03T04:01:26.343Z,1023.60
2022-12-03T04:02:29.477Z,1023.56
2022-12-03T04:04:04.114Z,1023.55
2022-12-03T04:05:07.411Z,1023.52
2022-12-03T04:06:10.140Z,1023.54
2022-12-03T04:07:44.986Z,1023.56
2022-12-03T04:08:48.134Z,1023.49
2022-12-03T04:09:50.806Z,1023.46
2022-12-03T04:11:25.321Z,1023.47
2022-12-03T04:12:28.023Z,1023.44
2022-12-03T04:13:30.771Z,1023.45
2022-12-03T04:15:05.704Z,1023.45
2022-12-03T04:16:08.501Z,1023.42
2022-12-03T04:17:11.843Z,1023.41
2022-12-03T04:18:46.421Z,1023.46
2022-12-03T04:19:49.146Z,1023.44
2022-12-03T04:20:51.851Z,1023.46
2022-12-03T04:22:26.509Z,1023.45
2022-12-03T04:23:36.490Z,1023.49
2022-12-03T04:24:39.217Z,1023.52
2022-12-03T04:26:14.665Z,1023.47
2022-12-03T04:27:17.421Z,1023.49
2022-12-03T04:28:20.088Z,1023.48
2022-12-03T04:29:54.575Z,1023.50
2022-12-03T04:30:57.576Z,1023.49
2022-12-03T04:32:00.769Z,1023.47
2022-12-03T04:33:35.379Z,1023.47
2022-12-03T04:34:38.141Z,1023.48
2022-12-03T04:35:41.888Z,1023.47
2022-12-03T04:37:17.069Z,1023.50
2022-12-03T04:38:19.863Z,1023.48
2022-12-03T04:39:22.625Z,1023.45
2022-12-03T04:40:56.996Z,1023.43
2022-12-03T04:41:59.864Z,1023.47
2022-12-03T04:43:02.547Z,1023.45
2022-12-03T04:44:37.051Z,1023.43
2022-12-03T04:45:40.270Z,1023.45
2022-12-03T04:46:43.498Z,1023.42
2022-12-03T04:48:25.747Z,1023.39
2022-12-03T04:49:28.476Z,1023.42
2022-12-03T04:50:31.270Z,1023.39
2022-12-03T04:52:05.729Z,1023.35
2022-12-03T04:53:08.517Z,1023.38
2022-12-03T04:54:11.208Z,1023.40
2022-12-03T04:55:46.169Z,1023.38
2022-12-03T04:56:48.914Z,1023.41
2022-12-03T04:57:51.667Z,1023.42
2022-12-03T04:59:27.988Z,1023.43
2022-12-03T05:00:23.859Z,1023.49
2022-12-03T05:01:27.159Z,1023.46
2022-12-03T05:02:31.065Z,1023.44
2022-12-03T05:04:05.935Z,1023.44
2022-12-03T05:05:52.528Z,1023.48
2022-12-03T05:06:55.760Z,1023.46
2022-12-03T05:07:58.890Z,1023.45
2022-12-03T05:09:34.012Z,1023.46
2022-12-03T05:10:37.046Z,1023.47
2022-12-03T05:11:39.839Z,1023.51
2022-12-03T05:13:15.110Z,1023.49
2022-12-03T05:14:18.004Z,1023.48
2022-12-03T05:15:20.827Z,1023.46
2022-12-03T05:16:56.308Z,1023.45
2022-12-03T05:17:59.887Z,1023.48
2022-12-03T05:19:02.881Z,1023.48
2022-12-03T05:20:38.323Z,1023.49
2022-12-03T05:21:50.125Z,1023.48
2022-12-03T05:22:53.264Z,1023.51
2022-12-03T05:24:28.487Z,1023.50
2022-12-03T05:25:31.518Z,1023.49
2022-12-03T05:26:34.810Z,1023.42
2022-12-03T05:28:15.550Z,1023.42
2022-12-03T05:29:18.832Z,1023.44
2022-12-03T05:30:21.960Z,1023.44
2022-12-03T05:31:57.632Z,1023.42
2022-12-03T05:33:00.517Z,1023.41
2022-12-03T05:34:03.435Z,1023.42
2022-12-03T05:35:39.270Z,1023.41
2022-12-03T05:36:42.289Z,1023.43
2022-12-03T05:37:45.323Z,1023.40
2022-12-03T05:39:20.195Z,1023.36
2022-12-03T05:40:23.318Z,1023.34
2022-12-03T05:41:26.319Z,1023.31
2022-12-03T05:43:01.269Z,1023.32
2022-12-03T05:44:04.374Z,1023.29
2022-12-03T05:45:12.544Z,1023.29
2022-12-03T05:46:48.210Z,1023.28
2022-12-03T05:47:50.991Z,1023.27
2022-12-03T05:48:53.867Z,1023.28
2022-12-03T05:50:28.344Z,1023.25
2022-12-03T05:51:31.259Z,1023.26
2022-12-03T05:52:34.141Z,1023.24
2022-12-03T05:54:08.926Z,1023.23
2022-12-03T05:55:11.809Z,1023.23
2022-12-03T05:56:14.849Z,1023.25
2022-12-03T05:57:49.524Z,1023.20
2022-12-03T05:58:52.208Z,1023.24
2022-12-03T05:59:55.330Z,1023.21
2022-12-03T06:00:23.375Z,1023.23
2022-12-03T06:01:33.710Z,1023.21
2022-12-03T06:02:37.228Z,1023.22
2022-12-03T06:04:14.114Z,1023.23
2022-12-03T06:05:17.099Z,1023.17
2022-12-03T06:06:20.163Z,1023.14
2022-12-03T06:08:00.638Z,1023.17
2022-12-03T06:09:04.055Z,1023.21
2022-12-03T06:10:07.245Z,1023.17
2022-12-03T06:11:41.976Z,1023.17
2022-12-03T06:12:44.842Z,1023.15
2022-12-03T06:13:47.684Z,1023.13
2022-12-03T06:15:22.385Z,1023.17
2022-12-03T06:16:32.287Z,1023.09
2022-12-03T06:17:35.781Z,1023.07
2022-12-03T06:19:10.738Z,1023.10
2022-12-03T06:20:13.562Z,1023.11
2022-12-03T06:21:16.487Z,1023.14
2022-12-03T06:22:51.159Z,1023.09
2022-12-03T06:23:54.265Z,1023.06
2022-12-03T06:25:02.073Z,1023.06
2022-12-03T06:26:39.789Z,1023.07
2022-12-03T06:27:42.897Z,1023.04
2022-12-03T06:28:46.224Z,1023.05
2022-12-03T06:30:21.041Z,1023.06
2022-12-03T06:31:24.596Z,1023.05
2022-12-03T06:32:27.975Z,1023.05
2022-12-03T06:34:02.770Z,1023.01
2022-12-03T06:35:06.260Z,1023.02
2022-12-03T06:36:09.147Z,1023.02
2022-12-03T06:37:50.940Z,1023.03
2022-12-03T06:38:53.950Z,1022.98
2022-12-03T06:39:57.075Z,1023.04
2022-12-03T06:41:31.670Z,1023.02
2022-12-03T06:42:34.623Z,1022.98
2022-12-03T06:43:37.587Z,1023.00
2022-12-03T06:45:12.363Z,1023.04
2022-12-03T06:46:15.563Z,1023.01
2022-12-03T06:47:18.898Z,1023.02
2022-12-03T06:48:53.559Z,1023.00
2022-12-03T06:49:56.446Z,1022.98
2022-12-03T06:50:59.476Z,1023.00
2022-12-03T06:52:34.133Z,1022.97
2022-12-03T06:53:37.023Z,1023.00
2022-12-03T06:54:39.756Z,1022.99
2022-12-03T06:56:17.852Z,1023.04
2022-12-03T06:57:37.271Z,1023.03
2022-12-03T06:58:39.921Z,1023.02
2022-12-03T07:00:23.926Z,1023.05
2022-12-03T07:01:27.042Z,1023.05
2022-12-03T07:02:30.696Z,1023.01
2022-12-03T07:04:06.251Z,1023.04
2022-12-03T07:05:09.886Z,1023.05
2022-12-03T07:06:13.077Z,1023.09
2022-12-03T07:07:48.125Z,1023.08
2022-12-03T07:08:51.567Z,1023.11
2022-12-03T07:09:54.547Z,1023.10
2022-12-03T07:11:29.479Z,1023.13
2022-12-03T07:12:32.455Z,1023.07
2022-12-03T07:13:35.355Z,1023.11
2022-12-03T07:15:10.510Z,1023.08
2022-12-03T07:16:13.867Z,1023.10
2022-12-03T07:17:17.207Z,1023.09
2022-12-03T07:18:51.802Z,1023.06
2022-12-03T07:19:54.616Z,1023.11
2022-12-03T07:20:57.611Z,1023.15
2022-12-03T07:22:32.433Z,1023.15
2022-12-03T07:23:35.360Z,1023.21
2022-12-03T07:24:38.206Z,1023.19
2022-12-03T07:26:20.646Z,1023.18
2022-12-03T07:27:23.610Z,1023.16
2022-12-03T07:28:26.345Z,1023.21
2022-12-03T07:30:01.344Z,1023.18
2022-12-03T07:31:04.698Z,1023.20
2022-12-03T07:32:08.019Z,1023.18
2022-12-03T07:33:43.856Z,1023.20
2022-12-03T07:34:47.005Z,1023.21
2022-12-03T07:35:50.505Z,1023.24
2022-12-03T07:37:29.959Z,1023.26
2022-12-03T07:38:32.950Z,1023.18
2022-12-03T07:39:36.020Z,1023.21
2022-12-03T07:41:10.958Z,1023.20
2022-12-03T07:42:14.026Z,1023.22
2022-12-03T07:43:16.911Z,1023.18
2022-12-03T07:45:00.675Z,1023.21
2022-12-03T07:46:03.635Z,1023.25
2022-12-03T07:47:07.350Z,1023.24
2022-12-03T07:48:42.210Z,1023.28
2022-12-03T07:49:45.250Z,1023.27
2022-12-03T07:50:48.329Z,1023.35
2022-12-03T07:52:29.612Z,1023.38
2022-12-03T07:53:32.559Z,1023.29
2022-12-03T07:54:35.566Z,1023.32
2022-12-03T07:56:10.914Z,1023.31
2022-12-03T07:57:13.790Z,1023.31
2022-12-03T07:58:16.632Z,1023.31
2022-12-03T07:59:51.214Z,1023.33
2022-12-03T08:00:23.634Z,1023.30
2022-12-03T08:01:27.145Z,1023.28
2022-12-03T08:02:33.466Z,1023.28
2022-12-03T08:04:08.519Z,1023.32
2022-12-03T08:05:11.574Z,1023.33
2022-12-03T08:06:14.585Z,1023.25
2022-12-03T08:07:49.627Z,1023.25
2022-12-03T08:08:53.082Z,1023.32
2022-12-03T08:10:02.108Z,1023.32
2022-12-03T08:11:37.085Z,1023.34
2022-12-03T08:12:40.325Z,1023.30
2022-12-03T08:13:43.233Z,1023.34
2022-12-03T08:15:17.933Z,1023.28
2022-12-03T08:16:29.388Z,1023.35
2022-12-03T08:17:33.158Z,1023.34
2022-12-03T08:19:07.881Z,1023.33
2022-12-03T08:20:10.756Z,1023.36
2022-12-03T08:21:13.512Z,1023.35
2022-12-03T08:22:53.940Z,1023.38
2022-12-03T08:23:56.914Z,1023.40
2022-12-03T08:25:00.358Z,1023.35
2022-12-03T08:26:35.432Z,1023.35
2022-12-03T08:27:38.324Z,1023.37
2022-12-03T08:28:41.214Z,1023.32
2022-12-03T08:30:16.013Z,1023.28
2022-12-03T08:31:19.065Z,1023.33
2022-12-03T08:32:30.247Z,1023.30
2022-12-03T08:34:05.002Z,1023.34
2022-12-03T08:35:07.959Z,1023.36
2022-12-03T08:36:10.920Z,1023.31
2022-12-03T08:37:45.676Z,1023.32
2022-12-03T08:38:48.639Z,1023.33
2022-12-03T08:39:51.631Z,1023.31
2022-12-03T08:41:26.552Z,1023.27
2022-12-03T08:42:29.437Z,1023.32
2022-12-03T08:43:32.405Z,1023.26
2022-12-03T08:45:07.992Z,1023.24
2022-12-03T08:46:11.150Z,1023.24
2022-12-03T08:47:14.726Z,1023.25
2022-12-03T08:48:55.147Z,1023.20
2022-12-03T08:49:58.354Z,1023.20
2022-12-03T08:51:01.411Z,1023.28
2022-12-03T08:52:36.019Z,1023.12
2022-12-03T08:53:39.020Z,1023.12
2022-12-03T08:54:48.151Z,1023.09
2022-12-03T08:56:23.395Z,1023.05
2022-12-03T08:57:26.325Z,1023.07
2022-12-03T08:58:29.371Z,1023.03
2022-12-03T09:00:23.300Z,1023.04
2022-12-03T09:01:26.731Z,1023.09
2022-12-03T09:02:30.167Z,1023.07
2022-12-03T09:04:05.267Z,1023.14
2022-12-03T09:05:08.804Z,1023.13
2022-12-03T09:06:12.036Z,1023.10
2022-12-03T09:07:47.519Z,1023.07
2022-12-03T09:08:50.737Z,1023.10
2022-12-03T09:09:58.571Z,1023.08
2022-12-03T09:11:33.356Z,1023.11
2022-12-03T09:12:36.550Z,1023.13
2022-12-03T09:13:39.398Z,1023.08
2022-12-03T09:15:16.354Z,1023.16
2022-12-03T09:16:19.733Z,1023.13
2022-12-03T09:17:23.574Z,1023.14
2022-12-03T09:18:58.561Z,1023.14
2022-12-03T09:20:01.485Z,1023.11
2022-12-03T09:21:04.480Z,1023.15
2022-12-03T09:22:39.426Z,1023.14
2022-12-03T09:23:42.507Z,1023.10
2022-12-03T09:24:45.531Z,1023.14
2022-12-03T09:26:20.775Z,1023.12
2022-12-03T09:27:23.764Z,1023.04
2022-12-03T09:28:26.659Z,1023.05
2022-12-03T09:30:09.202Z,1023.06
2022-12-03T09:31:12.043Z,1023.06
2022-12-03T09:32:22.437Z,1023.06
2022-12-03T09:33:57.581Z,1023.17
2022-12-03T09:35:01.056Z,1023.02
2022-12-03T09:36:04.097Z,1023.06
2022-12-03T09:37:38.969Z,1023.00
2022-12-03T09:38:46.278Z,1023.07
2022-12-03T09:39:51.136Z,1023.09
2022-12-03T09:41:26.456Z,1023.04
2022-12-03T09:42:29.418Z,1023.02
2022-12-03T09:44:13.733Z,1023.04
2022-12-03T09:45:53.102Z,1023.03
2022-12-03T09:46:56.519Z,1023.04
2022-12-03T09:47:59.301Z,1023.07
2022-12-03T09:49:34.321Z,1023.09
2022-12-03T09:50:37.496Z,1023.06
2022-12-03T09:51:40.347Z,1023.04
2022-12-03T09:53:16.547Z,1023.10
2022-12-03T09:54:26.944Z,1023.06
2022-12-03T09:55:36.061Z,1023.06
2022-12-03T09:57:10.920Z,1023.01
2022-12-03T09:58:13.874Z,1023.02
2022-12-03T09:59:21.181Z,1023.03
2022-12-03T10:00:23.903Z,1023.03
2022-12-03T10:01:30.283Z,1022.99
2022-12-03T10:02:34.124Z,1023.00
2022-12-03T10:04:16.150Z,1023.02
2022-12-03T10:05:19.829Z,1023.04
2022-12-03T10:06:22.562Z,1022.98
2022-12-03T10:08:04.335Z,1022.98
2022-12-03T10:09:08.058Z,1022.97
2022-12-03T10:10:11.108Z,1023.03
2022-12-03T10:11:45.894Z,1022.96
2022-12-03T10:12:49.022Z,1022.99
2022-12-03T10:13:51.875Z,1022.98
2022-12-03T10:15:27.007Z,1022.94
2022-12-03T10:16:30.220Z,1022.94
2022-12-03T10:17:33.827Z,1022.91
2022-12-03T10:19:08.542Z,1022.87
2022-12-03T10:20:11.303Z,1022.95
2022-12-03T10:21:14.371Z,1022.93
2022-12-03T10:22:49.348Z,1022.95
2022-12-03T10:23:57.822Z,1022.96
2022-12-03T10:25:01.083Z,1022.97
2022-12-03T10:26:35.934Z,1022.94
2022-12-03T10:27:38.981Z,1022.95
2022-12-03T10:28:41.965Z,1022.98
2022-12-03T10:30:25.291Z,1022.95
2022-12-03T10:31:28.936Z,1023.04
2022-12-03T10:32:32.005Z,1023.06
2022-12-03T10:34:11.762Z,1022.93
2022-12-03T10:35:14.744Z,1022.89
2022-12-03T10:36:17.543Z,1023.00
2022-12-03T10:37:52.639Z,1022.93
2022-12-03T10:38:55.685Z,1022.92
2022-12-03T10:40:06.977Z,1022.94
2022-12-03T10:41:42.067Z,1022.88
2022-12-03T10:42:45.146Z,1022.84
2022-12-03T10:43:48.194Z,1022.82
2022-12-03T10:45:23.183Z,1022.80
2022-12-03T10:46:26.602Z,1022.80
2022-12-03T10:47:31.281Z,1022.76
2022-12-03T10:49:06.851Z,1022.79
2022-12-03T10:50:09.902Z,1022.78
2022-12-03T10:51:12.757Z,1022.72
2022-12-03T10:52:47.736Z,1022.70
2022-12-03T10:53:50.769Z,1022.71
2022-12-03T10:54:53.992Z,1022.58
2022-12-03T10:56:29.366Z,1022.60
2022-12-03T10:57:32.417Z,1022.60
2022-12-03T10:58:42.550Z,1022.60
2022-12-03T11:00:23.703Z,1022.62
2022-12-03T11:01:26.965Z,1022.61
2022-12-03T11:02:30.621Z,1022.59
2022-12-03T11:04:13.402Z,1022.57
2022-12-03T11:05:16.476Z,1022.56
2022-12-03T11:06:19.741Z,1022.61
2022-12-03T11:07:55.104Z,1022.53
2022-12-03T11:09:14.270Z,1022.54
2022-12-03T11:10:17.310Z,1022.49
2022-12-03T11:11:52.373Z,1022.46
2022-12-03T11:12:55.435Z,1022.47
2022-12-03T11:13:58.136Z,1022.44
2022-12-03T11:15:41.503Z,1022.43
2022-12-03T11:16:45.248Z,1022.42
2022-12-03T11:17:48.199Z,1022.40
2022-12-03T11:19:22.890Z,1022.39
2022-12-03T11:20:33.514Z,1022.39
2022-12-03T11:21:36.508Z,1022.36
2022-12-03T11:23:11.568Z,1022.38
2022-12-03T11:24:14.731Z,1022.36
2022-12-03T11:25:17.878Z,1022.31
2022-12-03T11:26:52.919Z,1022.32
2022-12-03T11:27:56.026Z,1022.34
2022-12-03T11:28:59.173Z,1022.27
2022-12-03T11:30:34.101Z,1022.29
2022-12-03T11:31:38.278Z,1022.30
2022-12-03T11:32:43.583Z,1022.21
2022-12-03T11:34:18.644Z,1022.22
2022-12-03T11:35:22.017Z,1022.27
2022-12-03T11:37:00.816Z,1022.21
2022-12-03T11:38:36.852Z,1022.15
2022-12-03T11:39:46.829Z,1022.18
2022-12-03T11:40:51.300Z,1022.19
2022-12-03T11:42:26.399Z,1022.16
2022-12-03T11:43:29.754Z,1022.19
2022-12-03T11:44:33.129Z,1022.19
2022-12-03T11:46:15.498Z,1022.18
2022-12-03T11:47:19.278Z,1022.15
2022-12-03T11:48:22.553Z,1022.13
2022-12-03T11:49:58.375Z,1022.12
2022-12-03T11:51:01.960Z,1022.06
2022-12-03T11:52:05.312Z,1022.03
2022-12-03T11:53:40.749Z,1022.07
2022-12-03T11:54:44.083Z,1022.04
2022-12-03T11:55:47.467Z,1022.04
2022-12-03T11:57:28.544Z,1021.99
2022-12-03T11:58:32.016Z,1021.98
2022-12-03T11:59:35.398Z,1021.99
2022-12-03T12:00:23.000Z,1021.98
2022-12-03T12:01:25.804Z,1022.00
2022-12-03T12:02:36.096Z,1021.99
2022-12-03T12:04:11.865Z,1022.04
2022-12-03T12:05:15.305Z,1022.02
2022-12-03T12:06:18.149Z,1022.08
2022-12-03T12:07:53.130Z,1021.99
2022-12-03T12:08:56.396Z,1021.99
2022-12-03T12:10:00.087Z,1021.98
2022-12-03T12:11:34.559Z,1022.00
2022-12-03T12:12:37.489Z,1022.01
2022-12-03T12:13:50.549Z,1021.97
2022-12-03T12:15:25.022Z,1021.97
2022-12-03T12:16:28.473Z,1021.91
2022-12-03T12:17:31.920Z,1021.90
2022-12-03T12:19:07.582Z,1021.88
2022-12-03T12:20:11.309Z,1021.86
2022-12-03T12:21:13.948Z,1021.84
2022-12-03T12:22:48.689Z,1021.80
2022-12-03T12:23:51.377Z,1021.81
2022-12-03T12:24:54.176Z,1021.82
2022-12-03T12:26:28.674Z,1021.78
2022-12-03T12:27:31.591Z,1021.75
2022-12-03T12:28:34.360Z,1021.79
2022-12-03T12:30:09.447Z,1021.73
2022-12-03T12:31:12.607Z,1021.73
2022-12-03T12:32:15.847Z,1021.74
2022-12-03T12:33:50.561Z,1021.68
2022-12-03T12:34:53.420Z,1021.63
2022-12-03T12:35:56.248Z,1021.62
2022-12-03T12:37:30.807Z,1021.59
2022-12-03T12:38:45.472Z,1021.54
2022-12-03T12:39:48.391Z,1021.59
2022-12-03T12:41:23.486Z,1021.54
2022-12-03T12:42:26.653Z,1021.55
2022-12-03T12:43:35.346Z,1021.53
2022-12-03T12:45:09.997Z,1021.50
2022-12-03T12:46:53.702Z,1021.49
2022-12-03T12:47:57.053Z,1021.48
2022-12-03T12:49:31.594Z,1021.49
2022-12-03T12:50:40.626Z,1021.53
2022-12-03T12:51:43.446Z,1021.47
2022-12-03T12:53:18.255Z,1021.46
2022-12-03T12:54:21.027Z,1021.44
2022-12-03T12:55:23.701Z,1021.46
2022-12-03T12:56:58.277Z,1021.49
2022-12-03T12:58:01.089Z,1021.44
2022-12-03T12:59:03.801Z,1021.44
2022-12-03T13:00:23.533Z,1021.41
2022-12-03T13:01:26.796Z,1021.40
2022-12-03T13:02:30.746Z,1021.40
2022-12-03T13:04:05.850Z,1021.40
2022-12-03T13:05:08.648Z,1021.43
2022-12-03T13:06:11.336Z,1021.40
2022-12-03T13:07:46.339Z,1021.37
2022-12-03T13:08:56.333Z,1021.39
2022-12-03T13:09:59.561Z,1021.35
2022-12-03T13:11:34.142Z,1021.33
2022-12-03T13:12:37.091Z,1021.36
2022-12-03T13:13:47.341Z,1021.33
2022-12-03T13:15:21.914Z,1021.32
2022-12-03T13:16:25.018Z,1021.33
2022-12-03T13:17:28.583Z,1021.26
2022-12-03T13:19:03.099Z,1021.30
2022-12-03T13:20:19.488Z,1021.27
2022-12-03T13:21:22.195Z,1021.23
2022-12-03T13:22:56.975Z,1021.25
2022-12-03T13:23:59.779Z,1021.26
2022-12-03T13:25:02.553Z,1021.21
2022-12-03T13:27:35.218Z,1021.22
2022-12-03T13:28:38.044Z,1021.21
2022-12-03T13:29:40.747Z,1021.21
2022-12-03T13:31:16.028Z,1021.18
2022-12-03T13:32:19.415Z,1021.19
2022-12-03T13:33:22.207Z,1021.17
2022-12-03T13:34:56.760Z,1021.24
2022-12-03T13:35:59.443Z,1021.23
2022-12-03T13:37:09.885Z,1021.19
2022-12-03T13:38:44.360Z,1021.16
2022-12-03T13:39:47.339Z,1021.14
2022-12-03T13:40:50.771Z,1021.15
2022-12-03T13:42:25.332Z,1021.13
2022-12-03T13:43:28.556Z,1021.15
2022-12-03T13:44:36.547Z,1021.13
2022-12-03T13:46:11.783Z,1021.09
2022-12-03T13:47:14.950Z,1021.10
2022-12-03T13:48:17.701Z,1021.07
2022-12-03T13:49:59.692Z,1021.08
2022-12-03T13:51:02.501Z,1021.07
2022-12-03T13:52:05.581Z,1021.10
2022-12-03T13:53:40.158Z,1021.03
2022-12-03T13:54:43.017Z,1021.07
2022-12-03T13:55:45.772Z,1021.05
2022-12-03T13:57:20.339Z,1021.00
2022-12-03T13:58:23.294Z,1020.98
2022-12-03T13:59:32.000Z,1021.04
2022-12-03T14:00:22.958Z,1021.01
2022-12-03T14:01:26.383Z,1021.03
2022-12-03T14:02:30.092Z,1021.05
2022-12-03T14:04:05.253Z,1021.01
2022-12-03T14:05:11.795Z,1021.00
2022-12-03T14:06:14.719Z,1021.01
2022-12-03T14:07:49.584Z,1021.01
2022-12-03T14:08:52.846Z,1020.98
2022-12-03T14:09:56.079Z,1021.01
2022-12-03T14:11:30.879Z,1020.99
2022-12-03T14:12:34.012Z,1020.98
2022-12-03T14:13:36.809Z,1020.97
2022-12-03T14:15:11.555Z,1020.94
2022-12-03T14:16:14.557Z,1021.00
2022-12-03T14:17:18.109Z,1020.99
2022-12-03T14:18:52.754Z,1021.00
2022-12-03T14:19:55.993Z,1021.02
2022-12-03T14:20:59.179Z,1021.01
2022-12-03T14:22:33.798Z,1021.01
2022-12-03T14:23:43.727Z,1021.02
2022-12-03T14:24:46.656Z,1021.04
2022-12-03T14:26:21.394Z,1020.95
2022-12-03T14:27:24.197Z,1020.99
2022-12-03T14:28:26.982Z,1020.98
2022-12-03T14:30:06.766Z,1020.99
2022-12-03T14:31:09.586Z,1021.03
2022-12-03T14:32:13.021Z,1020.99
2022-12-03T14:33:47.840Z,1020.98
2022-12-03T14:34:50.629Z,1021.00
2022-12-03T14:35:59.926Z,1020.97
2022-12-03T14:37:34.721Z,1021.04
2022-12-03T14:38:37.486Z,1021.04
2022-12-03T14:39:40.226Z,1020.98
2022-12-03T14:41:19.215Z,1021.00
2022-12-03T14:42:21.986Z,1021.03
2022-12-03T14:43:24.839Z,1021.02
2022-12-03T14:44:59.447Z,1021.01
2022-12-03T14:46:02.596Z,1020.97
2022-12-03T14:47:08.963Z,1020.98
2022-12-03T14:48:43.627Z,1020.95
2022-12-03T14:49:46.388Z,1020.96
2022-12-03T14:50:50.211Z,1021.01
2022-12-03T14:52:25.003Z,1020.95
2022-12-03T14:53:33.129Z,1021.00
2022-12-03T14:54:36.091Z,1020.92
2022-12-03T14:56:10.984Z,1020.97
2022-12-03T14:57:13.745Z,1020.96